createdAt,value
2022-12-13T00:01:56.635Z,7.22
2022-12-13T00:04:27.975Z,7.22
2022-12-13T00:06:56.517Z,7.21
2022-12-13T00:09:25.044Z,7.20
2022-12-13T00:11:54.725Z,7.20
2022-12-13T00:14:23.047Z,7.20
2022-12-13T00:16:52.992Z,7.20
2022-12-13T00:19:22.171Z,7.17
2022-12-13T00:21:52.593Z,7.17
2022-12-13T00:24:21.033Z,7.15
2022-12-13T00:26:49.400Z,7.14
2022-12-13T00:29:18.077Z,7.14
2022-12-13T00:32:00.099Z,7.13
2022-12-13T00:34:30.911Z,7.12
2022-12-13T00:37:00.118Z,7.11
2022-12-13T00:39:29.367Z,7.10
2022-12-13T00:41:58.190Z,7.10
2022-12-13T00:44:27.671Z,7.09
2022-12-13T00:46:56.529Z,7.07
2022-12-13T00:49:25.153Z,7.07
2022-12-13T00:51:55.049Z,7.07
2022-12-13T00:54:23.502Z,7.07
2022-12-13T00:56:52.847Z,7.06
2022-12-13T00:59:21.329Z,7.06
2022-12-13T01:01:50.124Z,7.05
2022-12-13T01:04:18.896Z,7.04
2022-12-13T01:06:51.433Z,7.03
2022-12-13T01:09:25.458Z,7.03
2022-12-13T01:11:58.991Z,7.01
2022-12-13T01:14:28.189Z,6.99
2022-12-13T01:16:56.707Z,6.98
2022-12-13T01:19:26.227Z,6.98
2022-12-13T01:21:56.182Z,6.95
2022-12-13T01:24:26.646Z,6.94
2022-12-13T01:26:57.120Z,6.93
2022-12-13T01:29:27.461Z,6.93
2022-12-13T01:31:55.944Z,6.90
2022-12-13T01:34:26.698Z,6.92
2022-12-13T01:36:58.059Z,6.91
2022-12-13T01:39:29.031Z,6.90
2022-12-13T01:42:02.764Z,6.89
2022-12-13T01:45:02.645Z,6.87
2022-12-13T01:47:39.262Z,6.84
2022-12-13T01:50:11.962Z,6.82
2022-12-13T01:52:41.972Z,6.81
2022-12-13T01:55:13.232Z,6.83
2022-12-13T01:57:46.110Z,6.80
2022-12-13T02:00:17.166Z,6.78
2022-12-13T02:02:46.728Z,6.76
2022-12-13T02:05:24.386Z,6.76
2022-12-13T02:07:54.381Z,6.73
2022-12-13T02:10:25.324Z,6.72
2022-12-13T02:12:53.857Z,6.70
2022-12-13T02:15:23.365Z,6.71
2022-12-13T02:18:23.516Z,6.68
2022-12-13T02:21:13.205Z,6.66
2022-12-13T02:24:44.146Z,6.62
2022-12-13T02:27:42.958Z,6.62
2022-12-13T02:30:35.544Z,6.61
2022-12-13T02:33:27.367Z,6.59
2022-12-13T02:36:09.899Z,6.58
2022-12-13T02:38:46.975Z,6.58
2022-12-13T02:41:21.831Z,6.57
2022-12-13T02:44:01.065Z,6.56
2022-12-13T02:46:37.330Z,6.55
2022-12-13T02:49:08.788Z,6.55
2022-12-13T02:51:39.800Z,6.54
2022-12-13T02:54:08.644Z,6.54
2022-12-13T02:56:37.253Z,6.53
2022-12-13T02:59:13.005Z,6.54
2022-12-13T03:02:10.217Z,6.52
2022-12-13T03:05:11.082Z,6.50
2022-12-13T03:07:47.703Z,6.47
2022-12-13T03:10:23.080Z,6.46
2022-12-13T03:13:17.617Z,6.47
2022-12-13T03:15:54.420Z,6.44
2022-12-13T03:18:27.847Z,6.43
2022-12-13T03:20:59.832Z,6.44
2022-12-13T03:23:29.341Z,6.43
2022-12-13T03:26:03.106Z,6.44
2022-12-13T03:28:31.464Z,6.43
2022-12-13T03:31:00.205Z,6.43
2022-12-13T03:33:29.966Z,6.43
2022-12-13T03:35:58.828Z,6.42
2022-12-13T03:38:28.677Z,6.41
2022-12-13T03:41:01.146Z,6.42
2022-12-13T03:43:30.851Z,6.41
2022-12-13T03:45:59.233Z,6.40
2022-12-13T03:48:28.997Z,6.40
2022-12-13T03:50:57.985Z,6.38
2022-12-13T03:53:33.132Z,6.37
2022-12-13T03:56:04.574Z,6.35
2022-12-13T03:58:36.303Z,6.34
2022-12-13T04:01:08.183Z,6.33
2022-12-13T04:03:39.524Z,6.33
2022-12-13T04:06:08.815Z,6.31
2022-12-13T04:08:39.877Z,6.30
2022-12-13T04:11:22.928Z,6.30
2022-12-13T04:13:51.887Z,6.27
2022-12-13T04:16:20.505Z,6.28
2022-12-13T04:18:50.874Z,6.25
2022-12-13T04:21:19.414Z,6.25
2022-12-13T04:23:47.777Z,6.25
2022-12-13T04:26:16.361Z,6.25
2022-12-13T04:28:49.385Z,6.23
2022-12-13T04:31:21.012Z,6.23
2022-12-13T04:33:51.359Z,6.23
2022-12-13T04:36:31.922Z,6.22
2022-12-13T04:39:02.525Z,6.21
2022-12-13T04:41:36.995Z,6.20
2022-12-13T04:44:07.267Z,6.19
2022-12-13T04:46:55.934Z,6.17
2022-12-13T04:49:31.695Z,6.15
2022-12-13T04:52:02.213Z,6.15
2022-12-13T04:54:36.414Z,6.15
2022-12-13T04:57:08.469Z,6.15
2022-12-13T04:59:37.896Z,6.15
2022-12-13T05:02:07.821Z,6.13
2022-12-13T05:04:37.900Z,6.12
2022-12-13T05:07:06.347Z,6.12
2022-12-13T05:09:34.800Z,6.09
2022-12-13T05:12:03.262Z,6.10
2022-12-13T05:14:32.239Z,6.08
2022-12-13T05:17:01.080Z,6.07
2022-12-13T05:19:31.180Z,6.06
2022-12-13T05:22:02.376Z,6.06
2022-12-13T05:24:32.154Z,6.05
2022-12-13T05:27:01.165Z,6.03
2022-12-13T05:29:29.894Z,6.02
2022-12-13T05:31:59.203Z,6.02
2022-12-13T05:34:27.906Z,6.00
2022-12-13T05:36:56.420Z,5.99
2022-12-13T05:39:28.650Z,5.99
2022-12-13T05:42:01.558Z,5.99
2022-12-13T05:44:32.484Z,6.00
2022-12-13T05:47:01.886Z,5.97
2022-12-13T05:49:32.497Z,5.97
2022-12-13T05:52:01.093Z,5.97
2022-12-13T05:54:31.143Z,5.96
2022-12-13T05:56:59.684Z,5.95
2022-12-13T05:59:28.131Z,5.94
2022-12-13T06:01:56.540Z,5.92
2022-12-13T06:04:25.190Z,5.91
2022-12-13T06:06:54.346Z,5.90
2022-12-13T06:09:23.104Z,5.90
2022-12-13T06:12:01.418Z,5.89
2022-12-13T06:14:30.003Z,5.87
2022-12-13T06:16:58.446Z,5.87
2022-12-13T06:19:27.266Z,5.86
2022-12-13T06:21:57.159Z,5.85
2022-12-13T06:24:27.371Z,5.84
2022-12-13T06:26:57.232Z,5.83
2022-12-13T06:29:26.103Z,5.83
2022-12-13T06:32:01.891Z,5.83
2022-12-13T06:34:34.070Z,5.81
2022-12-13T06:37:04.690Z,5.82
2022-12-13T06:39:33.740Z,5.79
2022-12-13T06:42:07.175Z,5.79
2022-12-13T06:44:37.306Z,5.78
2022-12-13T06:47:11.089Z,5.76
2022-12-13T06:49:44.389Z,5.76
2022-12-13T06:52:15.397Z,5.75
2022-12-13T06:54:44.568Z,5.74
2022-12-13T06:57:14.881Z,5.74
2022-12-13T06:59:43.955Z,5.72
2022-12-13T07:02:15.650Z,5.71
2022-12-13T07:04:56.564Z,5.70
2022-12-13T07:07:26.692Z,5.69
2022-12-13T07:09:55.448Z,5.69
2022-12-13T07:12:26.607Z,5.67
2022-12-13T07:14:55.119Z,5.66
2022-12-13T07:17:32.481Z,5.67
2022-12-13T07:20:07.803Z,5.65
2022-12-13T07:22:46.687Z,5.63
2022-12-13T07:25:26.645Z,5.60
2022-12-13T07:28:02.153Z,5.61
2022-12-13T07:30:33.744Z,5.61
2022-12-13T07:33:03.096Z,5.60
2022-12-13T07:35:32.507Z,5.60
2022-12-13T07:38:07.724Z,5.58
2022-12-13T07:40:36.419Z,5.59
2022-12-13T07:43:07.469Z,5.58
2022-12-13T07:45:35.997Z,5.57
2022-12-13T07:48:08.955Z,5.57
2022-12-13T07:50:38.077Z,5.56
2022-12-13T07:53:08.781Z,5.56
2022-12-13T07:55:38.619Z,5.57
2022-12-13T07:58:12.006Z,5.56
2022-12-13T08:00:46.332Z,5.56
2022-12-13T08:03:18.351Z,5.53
2022-12-13T08:06:01.175Z,5.55
2022-12-13T08:08:30.786Z,5.53
2022-12-13T08:11:04.607Z,5.54
2022-12-13T08:13:35.174Z,5.51
2022-12-13T08:16:27.206Z,5.50
2022-12-13T08:19:02.823Z,5.49
2022-12-13T08:24:26.694Z,5.47
2022-12-13T08:26:57.408Z,5.48
2022-12-13T08:29:34.219Z,5.50
2022-12-13T08:32:05.807Z,5.50
2022-12-13T08:34:34.184Z,5.51
2022-12-13T08:37:04.008Z,5.50
2022-12-13T08:39:35.332Z,5.50
2022-12-13T08:42:16.147Z,5.52
2022-12-13T08:44:48.771Z,5.50
2022-12-13T08:47:24.212Z,5.48
2022-12-13T08:50:01.439Z,5.51
2022-12-13T08:52:39.758Z,5.50
2022-12-13T08:55:10.674Z,5.50
2022-12-13T08:57:40.618Z,5.50
2022-12-13T09:00:14.084Z,5.51
2022-12-13T09:02:42.733Z,5.49
2022-12-13T09:05:13.112Z,5.51
2022-12-13T09:08:02.789Z,5.51
2022-12-13T09:10:38.785Z,5.50
2022-12-13T09:13:11.803Z,5.52
2022-12-13T09:15:45.917Z,5.52
2022-12-13T09:18:24.404Z,5.53
2022-12-13T09:20:54.081Z,5.54
2022-12-13T09:23:46.051Z,5.55
2022-12-13T09:26:17.224Z,5.57
2022-12-13T09:28:46.235Z,5.59
2022-12-13T09:31:19.591Z,5.61
2022-12-13T09:33:48.399Z,5.61
2022-12-13T09:36:19.098Z,5.63
2022-12-13T09:38:47.960Z,5.63
2022-12-13T09:41:28.548Z,5.65
2022-12-13T09:44:03.286Z,5.66
2022-12-13T09:46:44.556Z,5.68
2022-12-13T09:49:22.877Z,5.66
2022-12-13T09:52:11.422Z,5.69
2022-12-13T09:54:49.388Z,5.70
2022-12-13T09:57:30.854Z,5.72
2022-12-13T10:00:01.815Z,5.72
2022-12-13T10:02:45.615Z,5.75
2022-12-13T10:05:22.437Z,5.77
2022-12-13T10:07:54.132Z,5.79
2022-12-13T10:10:23.514Z,5.80
2022-12-13T10:13:00.912Z,5.84
2022-12-13T10:15:31.767Z,5.85
2022-12-13T10:18:05.603Z,5.86
2022-12-13T10:20:35.970Z,5.87
2022-12-13T10:26:02.674Z,5.91
2022-12-13T10:28:34.618Z,5.92
2022-12-13T10:31:03.656Z,5.93
2022-12-13T10:33:36.991Z,5.93
2022-12-13T10:36:21.053Z,5.95
2022-12-13T10:38:51.791Z,5.94
2022-12-13T10:41:34.781Z,5.95
2022-12-13T10:44:18.622Z,5.96
2022-12-13T10:46:54.286Z,5.97
2022-12-13T10:49:26.691Z,5.99
2022-12-13T10:51:56.063Z,5.99
2022-12-13T10:54:38.352Z,6.02
2022-12-13T10:57:12.430Z,6.04
2022-12-13T10:59:41.701Z,6.03
2022-12-13T11:02:33.021Z,6.06
2022-12-13T11:05:25.596Z,6.06
2022-12-13T11:07:55.267Z,6.07
2022-12-13T11:10:30.903Z,6.09
2022-12-13T11:13:03.715Z,6.11
2022-12-13T11:15:37.290Z,6.13
2022-12-13T11:18:09.614Z,6.14
2022-12-13T11:20:54.062Z,6.14
2022-12-13T11:23:30.776Z,6.15
2022-12-13T11:26:07.337Z,6.17
2022-12-13T11:29:16.421Z,6.17
2022-12-13T11:31:57.309Z,6.17
2022-12-13T11:34:37.884Z,6.19
2022-12-13T11:37:21.406Z,6.22
2022-12-13T11:40:01.344Z,6.21
2022-12-13T11:42:36.093Z,6.24
2022-12-13T11:45:13.208Z,6.24
2022-12-13T11:47:48.390Z,6.23
2022-12-13T11:50:33.153Z,6.25
2022-12-13T11:53:22.800Z,6.27
2022-12-13T11:55:58.600Z,6.27
2022-12-13T12:01:28.644Z,6.31
2022-12-13T12:04:07.984Z,6.34
2022-12-13T12:06:43.742Z,6.36
2022-12-13T12:09:17.047Z,6.37
2022-12-13T12:11:50.174Z,6.36
2022-12-13T12:14:24.502Z,6.34
2022-12-13T12:16:55.595Z,6.35
2022-12-13T12:19:29.278Z,6.37
2022-12-13T12:22:18.867Z,6.40
2022-12-13T12:25:01.817Z,6.42
2022-12-13T12:27:39.751Z,6.41
2022-12-13T12:30:22.515Z,6.45
2022-12-13T12:33:10.705Z,6.46
2022-12-13T12:36:06.530Z,6.45
2022-12-13T12:39:07.113Z,6.44
2022-12-13T12:41:52.745Z,6.45
2022-12-13T12:44:33.674Z,6.45
2022-12-13T12:48:08.982Z,6.45
2022-12-13T12:50:43.125Z,6.45
2022-12-13T12:53:36.604Z,6.44
2022-12-13T12:56:23.031Z,6.47
2022-12-13T12:59:05.496Z,6.46
2022-12-13T13:01:57.461Z,6.46
2022-12-13T13:04:31.816Z,6.45
2022-12-13T13:07:23.401Z,6.45
2022-12-13T13:09:54.586Z,6.45
2022-12-13T13:12:30.025Z,6.43
2022-12-13T13:15:01.045Z,6.43
2022-12-13T13:17:48.439Z,6.45
2022-12-13T13:20:24.766Z,6.45
2022-12-13T13:23:17.677Z,6.47
2022-12-13T13:26:22.924Z,6.44
2022-12-13T13:28:35.442Z,6.44
2022-12-13T13:31:09.211Z,6.46
2022-12-13T13:33:47.908Z,6.48
2022-12-13T13:36:47.221Z,6.48
2022-12-13T13:39:19.320Z,6.48
2022-12-13T13:42:10.598Z,6.50
2022-12-13T13:45:22.281Z,6.50
2022-12-13T13:48:27.809Z,6.50
2022-12-13T13:52:24.552Z,6.49
2022-12-13T13:55:15.661Z,6.48
2022-12-13T13:58:47.631Z,6.47
2022-12-13T14:01:49.479Z,6.47
2022-12-13T14:05:30.122Z,6.47
2022-12-13T14:08:30.100Z,6.47
2022-12-13T14:11:26.783Z,6.49
2022-12-13T14:14:49.903Z,6.48
2022-12-13T14:18:29.523Z,6.47
2022-12-13T14:21:09.844Z,6.48
2022-12-13T14:23:58.564Z,6.48
2022-12-13T14:26:41.752Z,6.49
2022-12-13T14:29:15.772Z,6.50
2022-12-13T14:31:46.962Z,6.51
2022-12-13T14:34:24.480Z,6.52
2022-12-13T14:37:02.100Z,6.53
2022-12-13T14:39:34.642Z,6.53
2022-12-13T14:42:22.799Z,6.53
2022-12-13T14:44:51.575Z,6.52
2022-12-13T14:47:21.282Z,6.52
2022-12-13T14:49:55.518Z,6.52
2022-12-13T14:52:27.762Z,6.51
2022-12-13T14:55:00.845Z,6.50
2022-12-13T14:57:32.390Z,6.50
2022-12-13T15:00:22.796Z,6.52
2022-12-13T15:02:53.668Z,6.51
2022-12-13T15:05:29.348Z,6.51
2022-12-13T15:07:58.718Z,6.52
2022-12-13T15:10:40.154Z,6.52
2022-12-13T15:13:19.622Z,6.52
2022-12-13T15:15:55.953Z,6.52
2022-12-13T15:18:26.492Z,6.51
2022-12-13T15:20:59.206Z,6.52
2022-12-13T15:23:40.237Z,6.51
2022-12-13T15:26:28.576Z,6.52
2022-12-13T15:29:01.208Z,6.53
2022-12-13T15:31:30.205Z,6.52
2022-12-13T15:34:29.128Z,6.52
2022-12-13T15:37:01.091Z,6.50
2022-12-13T15:39:31.068Z,6.51
2022-12-13T15:42:01.583Z,6.50
2022-12-13T15:44:33.654Z,6.49
2022-12-13T15:47:08.453Z,6.50
2022-12-13T15:49:41.589Z,6.48
2022-12-13T15:52:32.920Z,6.49
2022-12-13T15:55:28.494Z,6.47
2022-12-13T15:57:59.679Z,6.47
2022-12-13T16:00:32.338Z,6.46
2022-12-13T16:03:09.339Z,6.44
2022-12-13T16:05:42.071Z,6.45
2022-12-13T16:08:27.397Z,6.46
2022-12-13T16:10:56.699Z,6.45
2022-12-13T16:13:30.145Z,6.45
2022-12-13T16:16:08.920Z,6.45
2022-12-13T16:18:47.715Z,6.43
2022-12-13T16:21:16.698Z,6.41
2022-12-13T16:23:48.410Z,6.38
2022-12-13T16:26:25.496Z,6.40
2022-12-13T16:28:58.574Z,6.38
2022-12-13T16:31:35.404Z,6.37
2022-12-13T16:34:04.340Z,6.35
2022-12-13T16:36:33.270Z,6.33
2022-12-13T16:39:02.500Z,6.32
2022-12-13T16:41:31.209Z,6.31
2022-12-13T16:44:04.386Z,6.31
2022-12-13T16:47:14.342Z,6.31
2022-12-13T16:49:26.468Z,6.31
2022-12-13T16:51:55.583Z,6.31
2022-12-13T16:54:25.831Z,6.32
2022-12-13T16:56:55.327Z,6.30
2022-12-13T16:59:27.338Z,6.29
2022-12-13T17:01:56.229Z,6.29
2022-12-13T17:04:27.110Z,6.29
2022-12-13T17:06:56.538Z,6.30
2022-12-13T17:09:25.613Z,6.30
2022-12-13T17:11:54.210Z,6.29
2022-12-13T17:14:23.986Z,6.28
2022-12-13T17:16:52.432Z,6.28
2022-12-13T17:19:20.891Z,6.29
2022-12-13T17:21:49.919Z,6.32
2022-12-13T17:24:18.409Z,6.30
2022-12-13T17:26:53.763Z,6.32
2022-12-13T17:29:25.487Z,6.31
2022-12-13T17:31:54.779Z,6.33
2022-12-13T17:34:23.419Z,6.32
2022-12-13T17:36:52.348Z,6.34
2022-12-13T17:39:21.505Z,6.33
2022-12-13T17:41:55.154Z,6.34
2022-12-13T17:44:26.736Z,6.33
2022-12-13T17:46:56.104Z,6.33
2022-12-13T17:49:25.305Z,6.34
2022-12-13T17:51:54.815Z,6.34
2022-12-13T17:54:25.177Z,6.33
2022-12-13T17:56:54.753Z,6.32
2022-12-13T17:59:25.338Z,6.31
2022-12-13T18:01:54.350Z,6.29
2022-12-13T18:04:23.274Z,6.28
2022-12-13T18:06:52.691Z,6.27
2022-12-13T18:09:21.140Z,6.28
2022-12-13T18:11:49.668Z,6.28
2022-12-13T18:14:18.013Z,6.28
2022-12-13T18:16:47.920Z,6.27
2022-12-13T18:19:16.568Z,6.26
2022-12-13T18:21:45.088Z,6.24
2022-12-13T18:24:14.081Z,6.23
2022-12-13T18:26:42.476Z,6.24
2022-12-13T18:29:10.885Z,6.23
2022-12-13T18:31:39.758Z,6.23
2022-12-13T18:34:10.178Z,6.24
2022-12-13T18:36:39.547Z,6.22
2022-12-13T18:39:08.047Z,6.22
2022-12-13T18:41:36.528Z,6.23
2022-12-13T18:44:07.972Z,6.22
2022-12-13T18:46:41.301Z,6.21
2022-12-13T18:49:15.319Z,6.18
2022-12-13T18:51:43.828Z,6.19
2022-12-13T18:54:12.282Z,6.21
2022-12-13T18:56:41.143Z,6.22
2022-12-13T18:59:11.772Z,6.22
2022-12-13T19:01:40.350Z,6.22
2022-12-13T19:04:08.860Z,6.21
2022-12-13T19:06:38.802Z,6.22
2022-12-13T19:09:07.370Z,6.24
2022-12-13T19:11:35.931Z,6.22
2022-12-13T19:14:04.338Z,6.22
2022-12-13T19:16:33.485Z,6.20
2022-12-13T19:19:02.517Z,6.19
2022-12-13T19:21:30.890Z,6.18
2022-12-13T19:24:01.425Z,6.18
2022-12-13T19:26:30.696Z,6.19
2022-12-13T19:29:00.391Z,6.18
2022-12-13T19:31:32.338Z,6.18
2022-12-13T19:34:03.534Z,6.18
2022-12-13T19:36:34.360Z,6.20
2022-12-13T19:39:04.558Z,6.20
2022-12-13T19:41:33.493Z,6.21
2022-12-13T19:44:04.557Z,6.21
2022-12-13T19:46:33.115Z,6.20
2022-12-13T19:49:01.706Z,6.20
2022-12-13T19:51:34.434Z,6.18
2022-12-13T19:54:07.821Z,6.17
2022-12-13T19:56:36.359Z,6.15
2022-12-13T19:59:04.969Z,6.15
2022-12-13T20:01:34.152Z,6.14
2022-12-13T20:04:02.722Z,6.11
2022-12-13T20:06:31.414Z,6.09
2022-12-13T20:09:00.004Z,6.06
2022-12-13T20:11:29.909Z,6.06
2022-12-13T20:13:58.320Z,6.05
2022-12-13T20:16:28.165Z,6.04
2022-12-13T20:18:57.578Z,6.03
2022-12-13T20:21:26.678Z,6.01
2022-12-13T20:23:55.780Z,6.00
2022-12-13T20:26:27.532Z,6.00
2022-12-13T20:28:58.093Z,6.01
2022-12-13T20:31:29.965Z,6.03
2022-12-13T20:34:00.499Z,6.03
2022-12-13T20:36:31.364Z,6.06
2022-12-13T20:39:02.291Z,6.06
2022-12-13T20:41:33.089Z,6.08
2022-12-13T20:44:05.820Z,6.07
2022-12-13T20:46:34.744Z,6.06
2022-12-13T20:49:06.262Z,6.04
2022-12-13T20:51:36.021Z,6.04
2022-12-13T20:54:04.794Z,6.01
2022-12-13T20:56:35.986Z,6.02
2022-12-13T20:59:07.853Z,6.02
2022-12-13T21:01:38.897Z,6.01
2022-12-13T21:04:10.266Z,6.02
2022-12-13T21:06:41.726Z,6.01
2022-12-13T21:09:12.287Z,6.02
2022-12-13T21:11:43.028Z,6.01
2022-12-13T21:14:21.195Z,6.02
2022-12-13T21:16:52.347Z,6.00
2022-12-13T21:19:23.776Z,6.01
2022-12-13T21:21:54.382Z,6.01
2022-12-13T21:24:24.712Z,6.01
2022-12-13T21:26:56.355Z,6.01
2022-12-13T21:29:26.242Z,6.00
2022-12-13T21:31:55.168Z,6.00
2022-12-13T21:34:24.337Z,5.97
2022-12-13T21:36:53.870Z,5.96
2022-12-13T21:39:24.676Z,5.96
2022-12-13T21:41:54.576Z,5.96
2022-12-13T21:44:25.110Z,5.97
2022-12-13T21:47:11.932Z,5.95
2022-12-13T21:49:41.005Z,5.92
2022-12-13T21:52:10.376Z,5.92
2022-12-13T21:54:38.908Z,5.93
2022-12-13T21:57:25.340Z,5.92
2022-12-13T21:59:55.259Z,5.91
2022-12-13T22:02:24.939Z,5.88
2022-12-13T22:04:55.442Z,5.88
2022-12-13T22:07:26.662Z,5.91
2022-12-13T22:09:56.319Z,5.89
2022-12-13T22:12:30.478Z,5.89
2022-12-13T22:15:00.396Z,5.88
2022-12-13T22:17:35.200Z,5.87
2022-12-13T22:20:08.479Z,5.87
2022-12-13T22:22:38.601Z,5.87
2022-12-13T22:25:08.688Z,5.89
2022-12-13T22:27:37.196Z,5.90
2022-12-13T22:30:10.354Z,5.93
2022-12-13T22:32:44.214Z,5.96
2022-12-13T22:35:14.012Z,5.97
2022-12-13T22:37:42.426Z,5.98
2022-12-13T22:40:12.556Z,5.98
2022-12-13T22:42:41.426Z,5.99
2022-12-13T22:45:18.913Z,6.01
2022-12-13T22:47:47.327Z,6.02
2022-12-13T22:50:16.559Z,6.03
2022-12-13T22:52:44.954Z,6.04
2022-12-13T22:55:13.478Z,6.04
2022-12-13T22:57:41.871Z,6.02
2022-12-13T23:00:19.397Z,6.01
2022-12-13T23:02:48.605Z,5.99
2022-12-13T23:05:17.158Z,5.97
2022-12-13T23:07:48.719Z,5.95
2022-12-13T23:10:34.713Z,5.95
2022-12-13T23:13:03.472Z,5.91
2022-12-13T23:15:38.697Z,5.89
2022-12-13T23:18:07.451Z,5.85
2022-12-13T23:20:36.024Z,5.83
2022-12-13T23:23:04.924Z,5.80
2022-12-13T23:25:34.004Z,5.76
2022-12-13T23:28:02.343Z,5.74
2022-12-13T23:30:32.469Z,5.74
2022-12-13T23:33:01.000Z,5.73
2022-12-13T23:35:29.571Z,5.73
2022-12-13T23:37:57.853Z,5.74
2022-12-13T23:40:26.307Z,5.74
2022-12-13T23:42:54.734Z,5.74
2022-12-13T23:45:24.228Z,5.75
2022-12-13T23:47:54.290Z,5.73
2022-12-13T23:50:22.655Z,5.71
2022-12-13T23:52:51.048Z,5.72
2022-12-13T23:55:19.784Z,5.70
2022-12-13T23:57:48.146Z,5.71
